createdAt,value
2022-11-15T00:00:04.061Z,84.55
2022-11-15T00:03:05.791Z,84.10
2022-11-15T00:06:03.628Z,83.80
2022-11-15T00:08:51.788Z,83.79
2022-11-15T00:11:38.355Z,83.21
2022-11-15T00:14:25.299Z,82.68
2022-11-15T00:17:11.545Z,82.68
2022-11-15T00:19:58.323Z,81.84
2022-11-15T00:22:44.957Z,81.45
2022-11-15T00:25:33.294Z,81.41
2022-11-15T00:28:20.074Z,80.92
2022-11-15T00:31:08.083Z,80.74
2022-11-15T00:33:54.613Z,80.86
2022-11-15T00:36:41.827Z,80.73
2022-11-15T00:39:28.227Z,80.97
2022-11-15T00:42:16.130Z,81.05
2022-11-15T00:45:02.793Z,81.26
2022-11-15T00:47:49.558Z,81.06
2022-11-15T00:50:35.998Z,81.17
2022-11-15T00:53:22.616Z,81.64
2022-11-15T00:56:09.349Z,81.73
2022-11-15T00:58:57.255Z,81.49
2022-11-15T01:01:43.930Z,80.96
2022-11-15T01:04:30.462Z,81.04
2022-11-15T01:07:17.173Z,81.28
2022-11-15T01:10:04.109Z,81.27
2022-11-15T01:12:51.000Z,80.93
2022-11-15T01:15:42.498Z,80.50
2022-11-15T01:18:28.943Z,80.44
2022-11-15T01:21:17.609Z,79.97
2022-11-15T01:24:04.010Z,79.73
2022-11-15T01:26:50.621Z,79.91
2022-11-15T01:29:37.317Z,80.26
2022-11-15T01:32:25.279Z,80.36
2022-11-15T01:35:11.680Z,80.32
2022-11-15T01:37:58.576Z,80.53
2022-11-15T01:40:45.064Z,81.34
2022-11-15T01:43:34.100Z,81.10
2022-11-15T01:46:26.267Z,81.13
2022-11-15T01:49:18.249Z,80.98
2022-11-15T01:52:07.492Z,80.49
2022-11-15T01:54:57.772Z,80.15
2022-11-15T01:57:46.465Z,79.59
2022-11-15T02:00:33.844Z,79.38
2022-11-15T02:03:21.088Z,79.56
2022-11-15T02:06:09.331Z,79.58
2022-11-15T02:08:56.928Z,79.96
2022-11-15T02:11:44.082Z,80.76
2022-11-15T02:14:31.525Z,80.59
2022-11-15T02:17:35.718Z,80.64
2022-11-15T02:20:39.673Z,81.03
2022-11-15T02:24:03.034Z,81.21
2022-11-15T02:27:09.678Z,81.65
2022-11-15T02:30:06.928Z,81.71
2022-11-15T02:32:59.531Z,81.63
2022-11-15T02:35:50.613Z,81.56
2022-11-15T02:38:42.667Z,81.86
2022-11-15T02:41:33.080Z,81.68
2022-11-15T02:44:24.618Z,81.70
2022-11-15T02:47:17.013Z,81.81
2022-11-15T02:50:09.046Z,81.98
2022-11-15T02:52:55.722Z,82.04
2022-11-15T02:55:45.623Z,81.81
2022-11-15T02:58:58.812Z,81.71
2022-11-15T03:01:55.508Z,81.88
2022-11-15T03:04:46.068Z,82.01
2022-11-15T03:07:38.948Z,81.98
2022-11-15T03:10:28.028Z,81.35
2022-11-15T03:13:20.942Z,81.57
2022-11-15T03:16:12.928Z,82.09
2022-11-15T03:19:04.479Z,82.52
2022-11-15T03:21:51.854Z,82.07
2022-11-15T03:24:40.613Z,82.88
2022-11-15T03:27:32.340Z,83.22
2022-11-15T03:30:19.943Z,83.35
2022-11-15T03:33:07.247Z,83.44
2022-11-15T03:35:54.773Z,84.18
2022-11-15T03:38:42.278Z,84.45
2022-11-15T03:41:32.724Z,84.02
2022-11-15T03:44:33.663Z,84.10
2022-11-15T03:47:23.796Z,83.81
2022-11-15T03:50:13.435Z,83.75
2022-11-15T03:53:00.671Z,83.83
2022-11-15T03:55:47.229Z,83.60
2022-11-15T03:58:35.338Z,84.04
2022-11-15T04:01:23.069Z,84.12
2022-11-15T04:04:09.667Z,84.47
2022-11-15T04:06:56.448Z,84.63
2022-11-15T04:09:56.764Z,84.47
2022-11-15T04:12:47.166Z,84.55
2022-11-15T04:15:35.259Z,84.96
2022-11-15T04:18:22.838Z,85.22
2022-11-15T04:21:27.260Z,84.73
2022-11-15T04:24:14.276Z,84.65
2022-11-15T04:27:01.092Z,84.22
2022-11-15T04:29:47.901Z,83.85
2022-11-15T04:32:35.641Z,84.15
2022-11-15T04:35:22.343Z,83.81
2022-11-15T04:38:10.811Z,83.71
2022-11-15T04:40:57.833Z,83.24
2022-11-15T04:43:44.282Z,83.11
2022-11-15T04:46:30.979Z,83.54
2022-11-15T04:49:19.147Z,83.64
2022-11-15T04:52:06.136Z,83.76
2022-11-15T04:54:52.486Z,83.88
2022-11-15T04:57:39.477Z,84.12
2022-11-15T05:00:26.223Z,83.84
2022-11-15T05:03:31.096Z,83.83
2022-11-15T05:06:19.030Z,83.79
2022-11-15T05:09:05.724Z,84.09
2022-11-15T05:11:52.170Z,83.67
2022-11-15T05:14:38.735Z,84.24
2022-11-15T05:17:25.493Z,84.19
2022-11-15T05:20:12.922Z,84.60
2022-11-15T05:23:00.784Z,84.70
2022-11-15T05:25:47.505Z,84.83
2022-11-15T05:28:34.336Z,84.92
2022-11-15T05:31:21.188Z,84.59
2022-11-15T05:34:07.930Z,84.72
2022-11-15T05:36:54.635Z,84.45
2022-11-15T05:39:42.614Z,84.67
2022-11-15T05:42:29.848Z,84.69
2022-11-15T05:45:16.783Z,84.33
2022-11-15T05:48:07.467Z,84.76
2022-11-15T05:50:54.434Z,84.05
2022-11-15T05:53:41.421Z,84.31
2022-11-15T05:56:30.532Z,84.75
2022-11-15T05:59:17.735Z,84.45
2022-11-15T06:02:04.446Z,84.54
2022-11-15T06:04:51.232Z,84.06
2022-11-15T06:07:37.972Z,84.17
2022-11-15T06:10:24.623Z,84.12
2022-11-15T06:13:12.794Z,83.56
2022-11-15T06:15:59.967Z,83.75
2022-11-15T06:18:46.216Z,83.95
2022-11-15T06:21:33.234Z,84.23
2022-11-15T06:24:20.057Z,84.11
2022-11-15T06:27:06.707Z,84.58
2022-11-15T06:29:54.204Z,84.22
2022-11-15T06:32:40.937Z,84.22
2022-11-15T06:35:27.283Z,84.20
2022-11-15T06:38:13.991Z,84.31
2022-11-15T06:41:03.688Z,84.32
2022-11-15T06:43:50.455Z,84.57
2022-11-15T06:46:38.447Z,84.65
2022-11-15T06:49:24.964Z,84.64
2022-11-15T06:52:11.402Z,85.09
2022-11-15T06:54:58.080Z,85.70
2022-11-15T06:57:51.991Z,85.22
2022-11-15T07:00:38.581Z,85.68
2022-11-15T07:03:26.846Z,85.37
2022-11-15T07:06:13.720Z,85.15
2022-11-15T07:09:00.406Z,85.19
2022-11-15T07:11:47.353Z,84.93
2022-11-15T07:14:33.943Z,84.86
2022-11-15T07:17:20.401Z,84.59
2022-11-15T07:20:09.305Z,84.27
2022-11-15T07:23:01.724Z,84.24
2022-11-15T07:25:48.415Z,84.31
2022-11-15T07:28:38.498Z,84.24
2022-11-15T07:31:25.594Z,84.04
2022-11-15T07:34:13.981Z,83.76
2022-11-15T07:37:02.087Z,83.39
2022-11-15T07:39:48.826Z,83.09
2022-11-15T07:42:52.499Z,83.01
2022-11-15T07:45:42.738Z,82.47
2022-11-15T07:48:40.219Z,81.69
2022-11-15T07:51:30.159Z,81.60
2022-11-15T07:54:18.210Z,81.36
2022-11-15T07:57:07.513Z,80.75
2022-11-15T07:59:54.444Z,80.36
2022-11-15T08:02:41.264Z,79.97
2022-11-15T08:05:27.549Z,80.25
2022-11-15T08:08:14.698Z,79.71
2022-11-15T08:11:02.807Z,79.32
2022-11-15T08:13:49.572Z,79.64
2022-11-15T08:16:36.204Z,78.82
2022-11-15T08:19:24.652Z,78.60
2022-11-15T08:22:11.235Z,78.61
2022-11-15T08:24:58.324Z,77.95
2022-11-15T08:27:46.673Z,78.44
2022-11-15T08:30:37.638Z,78.27
2022-11-15T08:33:24.111Z,78.87
2022-11-15T08:36:14.611Z,78.73
2022-11-15T08:39:01.004Z,79.34
2022-11-15T08:41:47.621Z,79.15
2022-11-15T08:44:35.170Z,79.54
2022-11-15T08:47:21.749Z,79.45
2022-11-15T08:50:09.430Z,79.56
2022-11-15T08:52:56.419Z,79.64
2022-11-15T08:55:43.084Z,79.37
2022-11-15T08:58:29.955Z,79.63
2022-11-15T09:01:20.173Z,79.84
2022-11-15T09:04:07.078Z,79.94
2022-11-15T09:06:53.831Z,80.14
2022-11-15T09:09:40.506Z,80.18
2022-11-15T09:12:27.645Z,80.14
2022-11-15T09:15:14.284Z,80.33
2022-11-15T09:18:02.642Z,79.94
2022-11-15T09:20:49.628Z,79.68
2022-11-15T09:23:36.363Z,79.26
2022-11-15T09:26:23.231Z,78.86
2022-11-15T09:29:09.889Z,78.10
2022-11-15T09:31:56.625Z,77.88
2022-11-15T09:34:44.659Z,77.55
2022-11-15T09:37:33.631Z,76.86
2022-11-15T09:40:21.335Z,76.33
2022-11-15T09:43:22.058Z,76.34
2022-11-15T09:46:16.006Z,75.83
2022-11-15T09:49:15.558Z,75.62
2022-11-15T09:52:01.264Z,76.02
2022-11-15T09:54:53.456Z,75.53
2022-11-15T09:57:23.248Z,74.30
2022-11-15T10:00:31.082Z,75.00
2022-11-15T10:03:02.924Z,74.62
2022-11-15T10:05:31.389Z,74.80
2022-11-15T10:08:06.239Z,74.87
2022-11-15T10:10:37.949Z,74.04
2022-11-15T10:13:06.358Z,74.46
2022-11-15T10:15:34.992Z,73.74
2022-11-15T10:18:29.219Z,74.57
2022-11-15T10:21:00.532Z,74.79
2022-11-15T10:23:30.386Z,74.47
2022-11-15T10:26:06.412Z,74.79
2022-11-15T10:28:35.647Z,74.99
2022-11-15T10:31:05.498Z,75.04
2022-11-15T10:33:35.457Z,74.13
2022-11-15T10:36:23.052Z,73.42
2022-11-15T10:38:57.714Z,73.81
2022-11-15T10:41:37.922Z,74.11
2022-11-15T10:44:33.372Z,73.97
2022-11-15T10:47:23.279Z,74.09
2022-11-15T10:50:04.287Z,73.66
2022-11-15T10:52:35.579Z,73.70
2022-11-15T10:55:14.963Z,73.99
2022-11-15T10:57:51.156Z,73.79
2022-11-15T11:00:31.222Z,73.32
2022-11-15T11:03:01.665Z,73.27
2022-11-15T11:05:35.224Z,73.13
2022-11-15T11:08:22.644Z,73.32
2022-11-15T11:11:01.431Z,74.12
2022-11-15T11:13:32.977Z,74.18
2022-11-15T11:16:24.469Z,74.37
2022-11-15T11:19:01.620Z,74.15
2022-11-15T11:21:41.103Z,74.12
2022-11-15T11:24:16.324Z,72.71
2022-11-15T11:26:56.692Z,72.14
2022-11-15T11:29:35.547Z,71.92
2022-11-15T11:32:10.174Z,70.90
2022-11-15T11:34:49.015Z,70.32
2022-11-15T11:37:23.643Z,70.03
2022-11-15T11:40:06.141Z,69.41
2022-11-15T11:42:59.160Z,69.30
2022-11-15T11:45:47.213Z,66.51
2022-11-15T11:48:16.974Z,66.79
2022-11-15T11:50:46.531Z,66.13
2022-11-15T11:53:25.605Z,66.94
2022-11-15T11:55:55.751Z,66.46
2022-11-15T11:58:28.131Z,66.41
2022-11-15T12:00:58.215Z,66.41
2022-11-15T12:03:30.831Z,66.33
2022-11-15T12:06:01.594Z,67.16
2022-11-15T12:08:35.619Z,67.36
2022-11-15T12:11:10.606Z,67.86
2022-11-15T12:13:40.420Z,67.88
2022-11-15T12:16:14.491Z,67.79
2022-11-15T12:18:45.548Z,67.98
2022-11-15T12:21:21.705Z,69.05
2022-11-15T12:23:56.177Z,68.87
2022-11-15T12:26:27.017Z,69.71
2022-11-15T12:29:07.426Z,69.94
2022-11-15T12:31:40.417Z,70.09
2022-11-15T12:34:17.489Z,70.48
2022-11-15T12:36:46.197Z,70.17
2022-11-15T12:39:14.647Z,70.38
2022-11-15T12:41:44.151Z,70.43
2022-11-15T12:44:14.786Z,70.58
2022-11-15T12:47:05.235Z,70.98
2022-11-15T12:49:49.148Z,71.20
2022-11-15T12:52:18.031Z,71.24
2022-11-15T12:55:04.096Z,71.66
2022-11-15T12:57:39.517Z,72.19
2022-11-15T13:00:47.799Z,72.49
2022-11-15T13:03:24.178Z,72.53
2022-11-15T13:06:18.066Z,72.57
2022-11-15T13:08:51.748Z,72.53
2022-11-15T13:11:49.055Z,72.69
2022-11-15T13:14:49.277Z,72.76
2022-11-15T13:17:35.406Z,72.96
2022-11-15T13:20:23.829Z,73.03
2022-11-15T13:22:52.251Z,72.07
2022-11-15T13:25:28.524Z,72.40
2022-11-15T13:27:59.602Z,72.38
2022-11-15T13:30:32.486Z,72.86
2022-11-15T13:33:07.638Z,73.01
2022-11-15T13:35:40.675Z,72.68
2022-11-15T13:38:08.693Z,72.90
2022-11-15T13:40:38.081Z,73.10
2022-11-15T13:43:21.370Z,73.35
2022-11-15T13:46:12.639Z,73.41
2022-11-15T13:48:40.945Z,73.95
2022-11-15T13:51:15.162Z,73.94
2022-11-15T13:53:47.409Z,74.23
2022-11-15T13:56:16.705Z,73.88
2022-11-15T13:58:44.721Z,73.74
2022-11-15T14:01:17.645Z,73.64
2022-11-15T14:03:50.658Z,73.21
2022-11-15T14:06:21.834Z,73.37
2022-11-15T14:09:19.109Z,73.53
2022-11-15T14:11:54.597Z,73.09
2022-11-15T14:14:24.177Z,73.59
2022-11-15T14:16:54.903Z,73.93
2022-11-15T14:19:38.514Z,73.31
2022-11-15T14:22:13.275Z,74.13
2022-11-15T14:24:41.495Z,73.98
2022-11-15T14:27:24.438Z,74.02
2022-11-15T14:29:52.618Z,74.04
2022-11-15T14:32:22.858Z,74.10
2022-11-15T14:34:51.793Z,74.73
2022-11-15T14:37:24.252Z,74.69
2022-11-15T14:39:52.880Z,75.45
2022-11-15T14:42:22.390Z,76.02
2022-11-15T14:44:50.636Z,75.84
2022-11-15T14:47:19.479Z,75.77
2022-11-15T14:49:47.488Z,75.85
2022-11-15T14:52:32.207Z,75.81
2022-11-15T14:55:00.431Z,76.26
2022-11-15T14:57:28.643Z,76.24
2022-11-15T14:59:57.662Z,76.49
2022-11-15T15:02:27.646Z,77.24
2022-11-15T15:04:55.878Z,77.09
2022-11-15T15:07:24.255Z,76.37
2022-11-15T15:10:02.762Z,75.80
2022-11-15T15:12:42.243Z,74.65
2022-11-15T15:15:15.056Z,74.63
2022-11-15T15:17:43.310Z,73.92
2022-11-15T15:20:11.747Z,73.77
2022-11-15T15:22:40.476Z,73.00
2022-11-15T15:25:23.193Z,72.84
2022-11-15T15:27:51.648Z,72.68
2022-11-15T15:30:19.607Z,72.60
2022-11-15T15:32:47.746Z,72.53
2022-11-15T15:35:16.790Z,72.18
2022-11-15T15:37:46.222Z,72.21
2022-11-15T15:40:17.375Z,72.13
2022-11-15T15:42:46.877Z,71.79
2022-11-15T15:45:15.803Z,72.00
2022-11-15T15:47:44.129Z,71.74
2022-11-15T15:50:20.229Z,72.11
2022-11-15T15:52:48.441Z,72.29
2022-11-15T15:55:16.363Z,72.95
2022-11-15T15:57:44.517Z,73.02
2022-11-15T16:00:15.017Z,73.49
2022-11-15T16:02:43.333Z,73.70
2022-11-15T16:05:12.092Z,73.72
2022-11-15T16:07:41.461Z,73.42
2022-11-15T16:10:19.812Z,73.96
2022-11-15T16:12:49.018Z,73.43
2022-11-15T16:15:18.499Z,73.52
2022-11-15T16:17:50.052Z,73.13
2022-11-15T16:20:26.307Z,73.11
2022-11-15T16:22:54.491Z,72.81
2022-11-15T16:25:22.536Z,72.66
2022-11-15T16:27:50.658Z,72.46
2022-11-15T16:30:25.178Z,72.79
2022-11-15T16:32:54.701Z,72.18
2022-11-15T16:35:22.808Z,72.22
2022-11-15T16:37:51.264Z,71.87
2022-11-15T16:40:25.981Z,71.96
2022-11-15T16:42:54.220Z,71.95
2022-11-15T16:45:24.541Z,71.83
2022-11-15T16:47:54.217Z,71.66
2022-11-15T16:50:24.191Z,72.03
2022-11-15T16:52:53.889Z,71.83
2022-11-15T16:55:22.798Z,71.58
2022-11-15T16:57:51.186Z,71.62
2022-11-15T17:00:20.839Z,71.42
2022-11-15T17:02:51.744Z,71.52
2022-11-15T17:05:24.394Z,71.73
2022-11-15T17:07:54.163Z,71.86
2022-11-15T17:10:22.928Z,71.89
2022-11-15T17:12:51.501Z,71.75
2022-11-15T17:15:19.988Z,71.24
2022-11-15T17:17:54.321Z,71.09
2022-11-15T17:20:24.852Z,71.04
2022-11-15T17:22:53.432Z,71.08
2022-11-15T17:25:21.381Z,71.12
2022-11-15T17:27:49.560Z,71.33
2022-11-15T17:30:18.665Z,71.13
2022-11-15T17:32:47.967Z,71.39
2022-11-15T17:35:17.425Z,71.32
2022-11-15T17:37:47.188Z,71.44
2022-11-15T17:40:15.151Z,71.53
2022-11-15T17:42:43.332Z,71.78
2022-11-15T17:45:12.214Z,71.86
2022-11-15T17:47:40.840Z,71.62
2022-11-15T17:50:10.574Z,71.31
2022-11-15T17:52:40.090Z,71.43
2022-11-15T17:55:08.501Z,71.62
2022-11-15T17:57:36.621Z,71.58
2022-11-15T18:00:06.252Z,71.26
2022-11-15T18:02:34.405Z,71.23
2022-11-15T18:05:03.213Z,71.34
2022-11-15T18:07:31.491Z,71.93
2022-11-15T18:10:00.811Z,71.46
2022-11-15T18:12:28.999Z,71.80
2022-11-15T18:14:57.935Z,71.50
2022-11-15T18:17:26.136Z,72.04
2022-11-15T18:19:54.195Z,71.91
2022-11-15T18:22:23.378Z,71.71
2022-11-15T18:24:51.635Z,71.76
2022-11-15T18:27:21.213Z,71.71
2022-11-15T18:29:49.173Z,71.95
2022-11-15T18:32:17.741Z,71.73
2022-11-15T18:34:45.770Z,72.20
2022-11-15T18:37:14.024Z,71.96
2022-11-15T18:39:42.167Z,71.65
2022-11-15T18:42:10.370Z,71.76
2022-11-15T18:44:39.558Z,71.72
2022-11-15T18:47:07.828Z,71.53
2022-11-15T18:49:35.765Z,71.57
2022-11-15T18:52:04.099Z,71.63
2022-11-15T18:54:32.021Z,71.10
2022-11-15T18:57:00.486Z,70.96
2022-11-15T18:59:28.920Z,70.66
2022-11-15T19:01:58.423Z,70.48
2022-11-15T19:04:26.391Z,70.73
2022-11-15T19:06:54.671Z,70.57
2022-11-15T19:09:27.077Z,70.69
2022-11-15T19:11:55.245Z,71.31
2022-11-15T19:14:25.179Z,71.05
2022-11-15T19:16:54.599Z,71.01
2022-11-15T19:19:25.460Z,70.88
2022-11-15T19:21:53.821Z,71.01
2022-11-15T19:24:22.116Z,71.15
2022-11-15T19:26:50.389Z,70.79
2022-11-15T19:29:18.755Z,71.26
2022-11-15T19:31:48.449Z,70.84
2022-11-15T19:34:17.766Z,70.82
2022-11-15T19:36:47.320Z,71.21
2022-11-15T19:39:18.003Z,71.39
2022-11-15T19:41:47.036Z,71.38
2022-11-15T19:44:15.246Z,72.16
2022-11-15T19:46:45.503Z,72.45
2022-11-15T19:49:13.829Z,72.75
2022-11-15T19:51:44.952Z,72.61
2022-11-15T19:54:16.856Z,72.91
2022-11-15T19:56:45.570Z,72.97
2022-11-15T19:59:14.199Z,73.35
2022-11-15T20:01:42.577Z,73.36
2022-11-15T20:04:10.786Z,73.82
2022-11-15T20:06:41.640Z,73.96
2022-11-15T20:09:14.490Z,74.18
2022-11-15T20:11:46.017Z,74.34
2022-11-15T20:14:14.486Z,73.96
2022-11-15T20:16:43.099Z,74.36
2022-11-15T20:19:12.467Z,74.43
2022-11-15T20:21:40.965Z,74.74
2022-11-15T20:24:09.359Z,75.06
2022-11-15T20:26:39.252Z,75.26
2022-11-15T20:29:08.424Z,74.86
2022-11-15T20:31:37.053Z,75.17
2022-11-15T20:34:05.011Z,75.14
2022-11-15T20:36:33.239Z,75.25
2022-11-15T20:39:01.539Z,74.94
2022-11-15T20:41:29.923Z,75.11
2022-11-15T20:43:59.444Z,75.58
2022-11-15T20:46:27.650Z,75.13
2022-11-15T20:48:55.817Z,75.10
2022-11-15T20:51:23.967Z,75.29
2022-11-15T20:53:52.398Z,75.63
2022-11-15T20:56:22.224Z,75.61
2022-11-15T20:58:51.126Z,75.77
2022-11-15T21:01:23.697Z,75.85
2022-11-15T21:03:52.882Z,75.68
2022-11-15T21:06:21.441Z,76.03
2022-11-15T21:09:07.540Z,76.12
2022-11-15T21:11:53.568Z,76.17
2022-11-15T21:14:21.675Z,75.91
2022-11-15T21:16:51.354Z,75.95
2022-11-15T21:19:23.890Z,76.24
2022-11-15T21:21:55.556Z,76.29
2022-11-15T21:24:24.582Z,76.51
2022-11-15T21:26:53.446Z,76.59
2022-11-15T21:29:21.595Z,76.90
2022-11-15T21:31:52.545Z,77.05
2022-11-15T21:34:21.383Z,76.99
2022-11-15T21:36:49.597Z,77.33
2022-11-15T21:39:17.574Z,77.19
2022-11-15T21:41:45.795Z,77.84
2022-11-15T21:44:14.026Z,77.76
2022-11-15T21:46:42.243Z,77.97
2022-11-15T21:49:11.798Z,77.71
2022-11-15T21:51:39.982Z,77.73
2022-11-15T21:54:08.190Z,77.51
2022-11-15T21:56:36.434Z,77.69
2022-11-15T21:59:04.617Z,78.16
2022-11-15T22:01:50.586Z,78.36
2022-11-15T22:04:21.356Z,78.75
2022-11-15T22:06:49.595Z,80.13
2022-11-15T22:09:17.849Z,80.58
2022-11-15T22:11:46.980Z,80.90
2022-11-15T22:14:15.047Z,81.39
2022-11-15T22:16:43.267Z,81.92
2022-11-15T22:19:11.422Z,82.15
2022-11-15T22:21:41.140Z,82.48
2022-11-15T22:24:09.613Z,83.01
2022-11-15T22:26:37.976Z,83.25
2022-11-15T22:29:06.128Z,83.75
2022-11-15T22:31:34.449Z,83.58
2022-11-15T22:34:02.654Z,83.82
2022-11-15T22:36:46.834Z,83.68
2022-11-15T22:39:20.871Z,83.53
2022-11-15T22:41:49.233Z,83.77
2022-11-15T22:44:17.451Z,83.70
2022-11-15T22:46:45.751Z,83.23
2022-11-15T22:49:13.804Z,83.31
2022-11-15T22:51:42.123Z,82.77
2022-11-15T22:54:10.280Z,83.08
2022-11-15T22:56:39.971Z,82.60
2022-11-15T22:59:08.056Z,82.66
2022-11-15T23:01:36.359Z,82.50
2022-11-15T23:04:04.490Z,82.44
2022-11-15T23:06:32.921Z,82.63
2022-11-15T23:09:01.167Z,82.36
2022-11-15T23:11:46.866Z,82.98
2022-11-15T23:14:16.362Z,83.69
2022-11-15T23:16:44.666Z,84.15
2022-11-15T23:19:13.391Z,84.91
2022-11-15T23:22:00.301Z,85.34
2022-11-15T23:24:28.725Z,85.68
2022-11-15T23:26:58.307Z,85.72
2022-11-15T23:29:28.866Z,85.75
2022-11-15T23:32:15.187Z,85.90
2022-11-15T23:34:45.530Z,86.13
2022-11-15T23:37:15.836Z,85.57
2022-11-15T23:39:43.942Z,85.94
2022-11-15T23:42:19.616Z,86.31
2022-11-15T23:44:50.658Z,86.01
2022-11-15T23:47:19.362Z,85.61
2022-11-15T23:49:47.579Z,85.89
2022-11-15T23:52:16.458Z,87.10
2022-11-15T23:54:44.685Z,87.34
2022-11-15T23:57:13.163Z,87.36
2022-11-15T23:59:43.333Z,87.88
